Latest Weather Observations for Ocean Reef

IDW60801

Issued at 4:04 pm WST Thursday 29 September 2016 (issued every 30 minutes, with the page automatically refreshed every 10 minutes)

About weather observations | Map of weather stations | Latest weather observations for WA | Other Formats
Station Details ID: 009214 Name: OCEAN REEF Lat: -31.76 Lon: 115.73 Height: 10.0 m
Data from the previous 72 hours. | See also: Recent months at Ocean Reef
Date/Time
WST
Temp
°C
App
Temp
°C
Dew
Point
°C
Rel
Hum
%
Delta-T
°C
Wind Press
QNH
hPa
Press
MSL
hPa
Rain since
9am
mm
Dir  Spd
km/h
Gust
km/h
Spd
kts
Gust
kts
29/04:00pm - - - - - SSW 17 19 9 10 - - -
29/03:30pm - - - - - SW 17 20 9 11 - - -
29/03:00pm - - - - - SW 17 22 9 12 - - -
29/02:30pm - - - - - SW 22 26 12 14 - - -
29/02:00pm - - - - - SW 20 26 11 14 - - -
29/01:30pm - - - - - SW 20 24 11 13 - - -
29/01:00pm - - - - - SW 17 26 9 14 - - -
29/12:30pm - - - - - NW 7 24 4 13 - - -
29/12:00pm - - - - - ENE 9 19 5 10 - - -
29/11:30am - - - - - ENE 13 19 7 10 - - -
29/11:00am - - - - - E 15 22 8 12 - - -
29/10:30am - - - - - NNE 13 24 7 13 - - -
29/10:00am - - - - - NE 17 26 9 14 - - -
29/09:30am - - - - - ENE 20 32 11 17 - - -
29/09:00am - - - - - NE 22 35 12 19 - - -
29/08:30am - - - - - NE 22 30 12 16 - - -
29/08:00am - - - - - ENE 30 41 16 22 - - -
29/07:30am - - - - - ENE 28 37 15 20 - - -
29/07:00am - - - - - ENE 28 37 15 20 - - -
29/06:30am - - - - - ENE 24 33 13 18 - - -
29/06:00am - - - - - ENE 22 30 12 16 - - -
29/05:30am - - - - - ENE 19 28 10 15 - - -
29/05:00am - - - - - ENE 19 28 10 15 - - -
29/04:30am - - - - - ENE 19 28 10 15 - - -
29/04:00am - - - - - ENE 20 28 11 15 - - -
29/03:30am - - - - - ENE 20 30 11 16 - - -
29/03:00am - - - - - ENE 20 28 11 15 - - -
29/02:30am - - - - - ENE 17 20 9 11 - - -
29/02:00am - - - - - ENE 13 15 7 8 - - -
29/01:30am - - - - - ENE 11 13 6 7 - - -
29/01:00am - - - - - E 13 15 7 8 - - -
29/12:30am - - - - - E 13 15 7 8 - - -
29/12:00am - - - - - ESE 13 15 7 8 - - -
 
Date/Time
WST
Temp
°C
App
Temp
°C
Dew
Point
°C
Rel
Hum
%
Delta-T
°C
Wind Press
QNH
hPa
Press
MSL
hPa
Rain since
9am
mm
Dir  Spd
km/h
Gust
km/h
Spd
kts
Gust
kts
28/11:30pm - - - - - ESE 15 19 8 10 - - -
28/11:00pm - - - - - ESE 15 20 8 11 - - -
28/10:30pm - - - - - SE 15 20 8 11 - - -
28/10:00pm - - - - - SE 13 17 7 9 - - -
28/09:30pm - - - - - SE 13 15 7 8 - - -
28/09:00pm - - - - - SE 15 17 8 9 - - -
28/08:30pm - - - - - SE 15 20 8 11 - - -
28/08:00pm - - - - - SSE 20 28 11 15 - - -
28/07:30pm - - - - - S 22 32 12 17 - - -
28/07:00pm - - - - - S 22 30 12 16 - - -
28/06:30pm - - - - - S 22 28 12 15 - - -
28/06:00pm - - - - - S 22 28 12 15 - - -
28/05:30pm - - - - - SSW 22 28 12 15 - - -
28/05:00pm - - - - - SSW 26 32 14 17 - - -
28/04:30pm - - - - - SSW 24 30 13 16 - - -
28/04:00pm - - - - - SSW 26 32 14 17 - - -
28/03:30pm - - - - - SSW 26 32 14 17 - - -
28/03:00pm - - - - - SSW 26 32 14 17 - - -
28/02:30pm - - - - - SSW 28 35 15 19 - - -
28/02:00pm - - - - - SSW 28 35 15 19 - - -
28/01:30pm - - - - - SSW 28 33 15 18 - - -
28/01:00pm - - - - - SSW 30 35 16 19 - - -
28/12:30pm - - - - - S 32 37 17 20 - - -
28/12:00pm - - - - - S 26 33 14 18 - - -
28/11:30am - - - - - S 28 35 15 19 - - -
28/11:00am - - - - - S 30 35 16 19 - - -
28/10:30am - - - - - S 28 37 15 20 - - -
28/10:00am - - - - - S 26 35 14 19 - - -
28/09:30am - - - - - S 28 39 15 21 - - -
28/09:00am - - - - - SSE 24 35 13 19 - - -
28/08:30am - - - - - SSE 24 32 13 17 - - -
28/08:00am - - - - - SSE 24 33 13 18 - - -
28/07:30am - - - - - SE 17 30 9 16 - - -
28/07:00am - - - - - SE 15 22 8 12 - - -
28/06:30am - - - - - SE 17 26 9 14 - - -
28/06:00am - - - - - SE 15 22 8 12 - - -
28/05:30am - - - - - ESE 17 24 9 13 - - -
28/05:00am - - - - - SE 17 22 9 12 - - -
28/04:30am - - - - - SE 17 26 9 14 - - -
28/04:00am - - - - - SE 17 26 9 14 - - -
28/03:30am - - - - - SSE 20 32 11 17 - - -
28/03:00am - - - - - SE 15 19 8 10 - - -
28/02:30am - - - - - SE 22 39 12 21 - - -
28/02:24am - - - - - SSE 30 50 16 27 - - -
28/02:14am - - - - - S 39 57 21 31 - - -
28/02:02am - - - - - SSE 28 52 15 28 - - -
28/02:00am - - - - - SSE 22 41 12 22 - - -
28/01:30am - - - - - S 48 70 26 38 - - -
28/01:00am - - - - - SSW 50 70 27 38 - - -
28/12:30am - - - - - SSW 50 70 27 38 - - -
28/12:24am - - - - - SSW 46 65 25 35 - - -
28/12:00am - - - - - SSW 46 56 25 30 - - -
 
Date/Time
WST
Temp
°C
App
Temp
°C
Dew
Point
°C
Rel
Hum
%
Delta-T
°C
Wind Press
QNH
hPa
Press
MSL
hPa
Rain since
9am
mm
Dir  Spd
km/h
Gust
km/h
Spd
kts
Gust
kts
27/11:30pm - - - - - SSW 41 50 22 27 - - -
27/11:24pm - - - - - SSW 46 65 25 35 - - -
27/11:00pm - - - - - SSW 46 59 25 32 - - -
27/10:32pm - - - - - SSW 56 74 30 40 - - -
27/10:30pm - - - - - SSW 57 74 31 40 - - -
27/10:00pm - - - - - SW 61 82 33 44 - - -
27/09:31pm - - - - - SW 54 72 29 39 - - -
27/09:30pm - - - - - SW 52 67 28 36 - - -
27/09:06pm - - - - - SW 50 69 27 37 - - -
27/09:00pm - - - - - SSW 57 69 31 37 - - -
27/08:30pm - - - - - SW 52 67 28 36 - - -
27/08:00pm - - - - - SW 54 67 29 36 - - -
27/07:38pm - - - - - SW 52 70 28 38 - - -
27/07:30pm - - - - - SW 57 70 31 38 - - -
27/07:00pm - - - - - SW 48 57 26 31 - - -
27/06:30pm - - - - - SW 57 70 31 38 - - -
27/06:00pm - - - - - SW 52 65 28 35 - - -
27/05:30pm - - - - - SW 52 65 28 35 - - -
27/05:00pm - - - - - SW 52 61 28 33 - - -
27/04:30pm - - - - - SW 54 67 29 36 - - -
27/04:00pm - - - - - SW 54 69 29 37 - - -
27/03:30pm - - - - - WSW 48 61 26 33 - - -
27/03:00pm - - - - - SW 44 61 24 33 - - -
27/02:30pm - - - - - SW 41 54 22 29 - - -
27/02:00pm - - - - - SW 48 63 26 34 - - -
27/01:43pm - - - - - WSW 54 67 29 36 - - -
27/01:37pm - - - - - W 52 65 28 35 - - -
27/01:30pm - - - - - WNW 44 54 24 29 - - -
27/01:02pm - - - - - W 54 80 29 43 - - -
27/01:00pm - - - - - WNW 52 61 28 33 - - -
27/12:49pm - - - - - WNW 50 70 27 38 - - -
27/12:30pm - - - - - WNW 48 59 26 32 - - -
27/12:00pm - - - - - WNW 44 56 24 30 - - -
27/11:30am - - - - - WNW 44 56 24 30 - - -
27/11:00am - - - - - WNW 46 54 25 29 - - -
27/10:30am - - - - - WNW 50 65 27 35 - - -

Other Formats:

Comma delimited format used in spreadsheet applications
http://www.bom.gov.au/fwo/IDW60801/IDW60801.94607.axf

JavaScript Object Notation format (JSON) in row-major order
http://www.bom.gov.au/fwo/IDW60801/IDW60801.94607.json